Time;durP1;ratioP1;P1;durP2;ratioP2;P2;SDS_P1;SDS_P2;PMS_P1;PMS_P2;Temp;Humidity;BMP_temperature;BMP_pressure;BME280_temperature;BME280_humidity;BME280_pressure;Samples;Min_cycle;Max_cycle;Signal;HPM_P1;HPM_P2
2022/05/19 00:01:52;;;;;;;84.03;54.05;;;24.00;56.00;;;;;;4925679;28;90773;-39
2022/05/19 00:04:17;;;;;;;84.05;53.88;;;24.00;55.90;;;;;;4913606;28;90016;-38
2022/05/19 00:06:43;;;;;;;84.97;53.95;;;24.00;55.90;;;;;;4923004;28;93939;-38
2022/05/19 00:09:09;;;;;;;83.30;53.78;;;24.00;55.90;;;;;;4921305;28;90155;-41
2022/05/19 00:11:34;;;;;;;84.22;53.92;;;24.00;55.90;;;;;;4921789;28;90977;-40
2022/05/19 00:14:01;;;;;;;83.80;53.92;;;24.00;55.90;;;;;;4914322;28;93563;-38
2022/05/19 00:16:27;;;;;;;84.38;53.83;;;24.00;55.90;;;;;;4931085;28;91509;-39
2022/05/19 00:18:53;;;;;;;82.47;53.53;;;24.00;55.80;;;;;;4920376;28;90351;-39
2022/05/19 00:21:19;;;;;;;84.70;53.92;;;24.00;55.50;;;;;;4924347;28;90399;-39
2022/05/19 00:23:45;;;;;;;83.80;53.80;;;24.00;55.70;;;;;;4921337;28;89960;-39
2022/05/19 00:26:10;;;;;;;83.47;53.88;;;24.00;55.70;;;;;;4925691;28;90520;-40
2022/05/19 00:28:36;;;;;;;83.18;53.97;;;24.00;55.70;;;;;;4910317;28;92307;-40
2022/05/19 00:31:02;;;;;;;83.80;53.83;;;24.00;55.90;;;;;;4922406;28;89757;-39
2022/05/19 00:33:28;;;;;;;84.68;54.05;;;24.00;56.00;;;;;;4926513;28;92872;-37
2022/05/19 00:35:54;;;;;;;85.13;54.05;;;24.00;55.90;;;;;;4923689;28;89706;-38
2022/05/19 00:38:19;;;;;;;84.10;53.80;;;24.00;55.90;;;;;;4921497;28;91439;-39
2022/05/19 00:40:51;;;;;;;82.97;53.83;;;23.90;55.90;;;;;;4924627;28;89937;-38
2022/05/19 00:43:29;;;;;;;83.70;54.08;;;23.90;55.90;;;;;;4922311;28;91374;-38
2022/05/19 00:46:01;;;;;;;84.43;54.10;;;24.00;56.00;;;;;;4926012;28;90391;-38
2022/05/19 00:48:37;;;;;;;85.35;53.63;;;23.90;56.20;;;;;;4925942;28;94583;-38
2022/05/19 00:51:06;;;;;;;84.03;53.85;;;23.90;56.20;;;;;;4924987;28;90584;-38
2022/05/19 00:53:38;;;;;;;83.85;53.70;;;23.90;56.40;;;;;;4919936;28;91058;-38
2022/05/19 00:56:17;;;;;;;83.57;53.92;;;23.90;56.60;;;;;;4927466;28;94829;-37
2022/05/19 00:58:54;;;;;;;83.95;54.13;;;23.90;56.50;;;;;;4911410;28;91123;-39
2022/05/19 01:01:20;;;;;;;83.25;53.70;;;23.80;56.60;;;;;;4923327;28;89919;-39
2022/05/19 01:03:53;;;;;;;83.63;53.72;;;23.80;56.80;;;;;;4922313;28;90912;-39
2022/05/19 01:06:21;;;;;;;82.88;53.65;;;23.80;56.90;;;;;;4918397;28;90789;-39
2022/05/19 01:09:04;;;;;;;83.35;53.90;;;23.90;56.80;;;;;;4917507;28;92471;-38
2022/05/19 01:11:31;;;;;;;82.85;53.50;;;23.80;57.40;;;;;;4920825;28;90961;-41
2022/05/19 01:13:56;;;;;;;84.25;54.15;;;23.80;56.90;;;;;;4925610;28;95215;-41
2022/05/19 01:16:22;;;;;;;84.47;54.03;;;23.80;56.90;;;;;;4923668;28;91076;-40
2022/05/19 01:18:49;;;;;;;83.32;53.85;;;23.80;56.90;;;;;;4921419;28;90023;-38
2022/05/19 01:21:18;;;;;;;84.10;53.72;;;23.70;56.90;;;;;;4928423;28;90313;-39
2022/05/19 01:23:55;;;;;;;82.90;53.58;;;23.70;56.90;;;;;;4917906;28;92356;-39
2022/05/19 01:26:27;;;;;;;83.53;53.55;;;23.70;57.00;;;;;;4920952;28;89919;-41
2022/05/19 01:28:53;;;;;;;83.78;53.85;;;23.70;57.00;;;;;;4913608;28;92830;-40
2022/05/19 01:31:36;;;;;;;83.30;53.75;;;23.70;57.00;;;;;;4917514;28;90815;-40
2022/05/19 01:34:04;;;;;;;83.63;53.85;;;23.70;57.00;;;;;;4924376;28;90737;-37
2022/05/19 01:36:30;;;;;;;83.22;54.03;;;23.60;57.00;;;;;;4930522;28;90136;-39
2022/05/19 01:39:05;;;;;;;82.97;54.05;;;23.70;57.10;;;;;;4916599;28;92248;-37
2022/05/19 01:42:09;;;;;;;84.00;53.85;;;23.60;57.10;;;;;;4921820;28;89886;-38
2022/05/19 01:44:56;;;;;;;85.13;54.08;;;23.60;57.20;;;;;;4921356;28;90736;-38
2022/05/19 01:47:39;;;;;;;83.75;54.03;;;23.60;57.20;;;;;;4927900;28;91165;-38
2022/05/19 01:50:24;;;;;;;83.13;53.45;;;23.60;57.10;;;;;;4924069;28;99239;-38
2022/05/19 01:53:15;;;;;;;83.32;53.60;;;23.60;57.30;;;;;;4924818;28;90464;-41
2022/05/19 01:56:13;;;;;;;82.95;53.58;;;23.60;57.20;;;;;;4925327;28;93755;-38
2022/05/19 01:58:48;;;;;;;82.82;53.60;;;23.50;57.40;;;;;;4911671;28;90491;-37
2022/05/19 02:01:18;;;;;;;83.35;53.53;;;23.50;57.40;;;;;;4928389;28;90171;-37
2022/05/19 02:04:01;;;;;;;82.68;53.67;;;23.50;57.50;;;;;;4924124;28;91035;-39
2022/05/19 02:06:35;;;;;;;84.72;53.60;;;23.50;57.50;;;;;;4920156;28;96262;-37
2022/05/19 02:09:09;;;;;;;84.97;53.78;;;23.40;57.50;;;;;;4923116;28;90876;-37
2022/05/19 02:11:43;;;;;;;83.60;53.75;;;23.40;57.50;;;;;;4928351;28;89820;-37
2022/05/19 02:14:14;;;;;;;84.38;53.83;;;23.40;57.60;;;;;;4921990;28;89800;-38
2022/05/19 02:16:42;;;;;;;83.07;53.70;;;23.40;57.70;;;;;;4926927;28;89647;-38
2022/05/19 02:19:10;;;;;;;82.47;53.42;;;23.40;57.10;;;;;;4924939;28;89523;-39
2022/05/19 02:21:36;;;;;;;83.38;53.60;;;23.40;57.80;;;;;;4923854;28;91621;-39
2022/05/19 02:24:03;;;;;;;83.70;53.53;;;23.40;57.70;;;;;;4936469;28;92399;-37
2022/05/19 02:26:38;;;;;;;83.68;53.72;;;23.40;57.70;;;;;;4923033;28;90569;-38
2022/05/19 02:29:09;;;;;;;84.28;53.72;;;23.30;57.80;;;;;;4922874;28;90659;-38
2022/05/19 02:31:35;;;;;;;82.40;53.75;;;23.30;57.80;;;;;;4928656;28;89989;-37
2022/05/19 02:34:01;;;;;;;84.25;53.63;;;23.30;57.80;;;;;;4927568;28;91540;-38
2022/05/19 02:36:26;;;;;;;83.43;53.53;;;23.30;57.80;;;;;;4925397;28;90587;-38
2022/05/19 02:38:52;;;;;;;82.68;53.75;;;23.30;57.90;;;;;;4930477;28;89463;-40
2022/05/19 02:41:18;;;;;;;83.80;53.58;;;23.20;57.90;;;;;;4926769;28;90708;-39
2022/05/19 02:43:44;;;;;;;82.57;53.42;;;23.30;57.90;;;;;;4934062;28;90701;-37
2022/05/19 02:46:09;;;;;;;83.18;53.58;;;23.30;58.00;;;;;;4923975;28;90776;-37
2022/05/19 02:48:35;;;;;;;83.28;53.53;;;23.30;58.00;;;;;;4935641;28;90588;-38
2022/05/19 02:51:01;;;;;;;83.40;53.67;;;23.20;57.90;;;;;;4921644;28;91409;-39
2022/05/19 02:53:27;;;;;;;83.70;54.05;;;23.30;58.10;;;;;;4928604;28;90192;-38
2022/05/19 02:55:52;;;;;;;82.78;53.65;;;23.20;58.00;;;;;;4925836;28;89981;-38
2022/05/19 02:58:18;;;;;;;84.15;53.53;;;23.20;58.10;;;;;;4919305;28;89969;-38
2022/05/19 03:00:47;;;;;;;83.03;53.38;;;23.20;58.10;;;;;;4920523;28;91016;-39
2022/05/19 03:03:12;;;;;;;83.82;53.95;;;23.20;58.10;;;;;;4924074;28;90020;-40
2022/05/19 03:05:38;;;;;;;82.18;53.40;;;23.20;58.20;;;;;;4922021;28;91567;-39
2022/05/19 03:08:06;;;;;;;82.63;53.47;;;23.20;58.20;;;;;;4930184;28;90480;-38
2022/05/19 03:10:31;;;;;;;84.00;53.65;;;23.10;58.20;;;;;;4918096;28;92351;-38
2022/05/19 03:12:57;;;;;;;84.38;54.10;;;23.20;58.30;;;;;;4927098;28;90898;-39
2022/05/19 03:15:24;;;;;;;82.20;53.50;;;23.10;58.30;;;;;;4926159;28;90861;-38
2022/05/19 03:17:50;;;;;;;82.53;53.33;;;23.10;58.30;;;;;;4930001;28;95652;-38
2022/05/19 03:20:16;;;;;;;84.25;53.80;;;23.10;58.40;;;;;;4931528;28;96944;-41
2022/05/19 03:22:42;;;;;;;83.25;53.63;;;23.10;58.30;;;;;;4926788;28;90197;-39
2022/05/19 03:25:08;;;;;;;82.18;53.50;;;23.10;58.40;;;;;;4925498;28;90251;-38
2022/05/19 03:27:36;;;;;;;83.50;53.70;;;23.10;58.40;;;;;;4923630;28;89606;-39
2022/05/19 03:30:02;;;;;;;83.32;53.78;;;23.10;58.50;;;;;;4920379;28;89543;-40
2022/05/19 03:32:28;;;;;;;83.40;53.63;;;23.10;58.50;;;;;;4923813;28;89938;-39
2022/05/19 03:34:53;;;;;;;82.57;53.50;;;23.10;58.50;;;;;;4924399;28;92269;-39
2022/05/19 03:37:19;;;;;;;83.15;53.72;;;23.10;58.50;;;;;;4922175;28;92571;-38
2022/05/19 03:39:45;;;;;;;82.60;53.47;;;23.00;58.50;;;;;;4923175;28;90140;-39
2022/05/19 03:42:10;;;;;;;82.85;53.45;;;23.00;59.20;;;;;;4926213;28;90200;-37
2022/05/19 03:44:37;;;;;;;84.50;53.63;;;23.00;58.50;;;;;;4929799;28;90856;-38
2022/05/19 03:47:04;;;;;;;83.35;53.50;;;23.00;58.60;;;;;;4924935;28;91643;-42
2022/05/19 03:49:30;;;;;;;82.63;53.42;;;23.00;58.50;;;;;;4925634;28;91190;-38
2022/05/19 03:51:55;;;;;;;82.05;53.08;;;23.00;58.70;;;;;;4924914;28;90131;-40
2022/05/19 03:54:21;;;;;;;81.90;53.65;;;23.00;58.70;;;;;;4919128;28;95225;-37
2022/05/19 03:56:46;;;;;;;83.05;53.45;;;23.00;58.70;;;;;;4927370;28;90484;-37
2022/05/19 03:59:12;;;;;;;82.75;53.30;;;23.00;58.70;;;;;;4913536;28;92992;-39
2022/05/19 04:01:39;;;;;;;83.10;53.65;;;23.00;58.80;;;;;;4919061;28;91448;-38
2022/05/19 04:04:05;;;;;;;82.78;53.45;;;22.90;58.70;;;;;;4921799;28;90246;-40
2022/05/19 04:06:31;;;;;;;82.90;53.58;;;23.00;58.80;;;;;;4925307;28;90860;-38
2022/05/19 04:08:56;;;;;;;83.60;53.80;;;23.00;59.30;;;;;;4926951;28;94240;-38
2022/05/19 04:11:23;;;;;;;83.43;54.00;;;23.00;58.80;;;;;;4927399;28;89817;-40
2022/05/19 04:13:49;;;;;;;83.07;53.35;;;22.90;58.80;;;;;;4926069;28;91199;-38
2022/05/19 04:16:14;;;;;;;83.88;53.88;;;22.90;58.90;;;;;;4922852;28;88888;-37
2022/05/19 04:18:40;;;;;;;83.32;53.72;;;22.90;58.90;;;;;;4922562;28;90235;-39
2022/05/19 04:21:07;;;;;;;82.68;53.40;;;22.90;58.90;;;;;;4924615;28;89988;-38
2022/05/19 04:23:32;;;;;;;82.05;53.47;;;22.90;59.00;;;;;;4924878;28;94814;-37
2022/05/19 04:25:58;;;;;;;83.28;53.72;;;22.90;59.00;;;;;;4924201;28;89762;-38
2022/05/19 04:28:24;;;;;;;84.22;53.92;;;22.90;58.90;;;;;;4914511;28;90664;-37
2022/05/19 04:30:50;;;;;;;82.78;53.33;;;22.90;58.90;;;;;;4906542;28;90991;-39
2022/05/19 04:33:16;;;;;;;81.82;53.28;;;22.90;59.00;;;;;;4918307;28;95007;-37
2022/05/19 04:35:41;;;;;;;82.70;53.75;;;22.90;58.90;;;;;;4921597;28;89386;-39
2022/05/19 04:38:09;;;;;;;82.70;53.53;;;22.90;58.90;;;;;;4920249;28;91194;-39
2022/05/19 04:40:39;;;;;;;83.65;53.92;;;23.00;59.00;;;;;;4922405;28;90380;-38
2022/05/19 04:43:06;;;;;;;82.07;53.17;;;22.90;59.00;;;;;;4916495;28;90402;-38
2022/05/19 04:45:32;;;;;;;82.10;53.47;;;22.90;58.90;;;;;;4927432;28;90315;-38
2022/05/19 04:47:58;;;;;;;82.82;53.78;;;23.00;58.90;;;;;;4925576;28;92954;-41
2022/05/19 04:50:24;;;;;;;84.25;53.72;;;22.90;58.90;;;;;;4921405;28;91721;-38
2022/05/19 04:52:50;;;;;;;82.45;53.33;;;23.00;59.00;;;;;;4917401;28;95288;-38
2022/05/19 04:55:15;;;;;;;82.60;53.28;;;23.00;58.80;;;;;;4919578;28;90432;-38
2022/05/19 04:57:43;;;;;;;82.88;53.75;;;23.00;58.80;;;;;;4921415;28;90813;-38
2022/05/19 05:00:11;;;;;;;82.22;53.75;;;23.00;58.70;;;;;;4916883;28;90486;-37
2022/05/19 05:02:37;;;;;;;85.13;53.70;;;23.10;58.70;;;;;;4919096;28;89809;-37
2022/05/19 05:05:04;;;;;;;82.85;53.90;;;23.10;58.70;;;;;;4918622;28;90323;-39
2022/05/19 05:07:30;;;;;;;82.25;53.45;;;23.10;58.60;;;;;;4912615;28;91604;-37
2022/05/19 05:09:55;;;;;;;85.78;53.72;;;23.10;58.60;;;;;;4924456;28;89969;-37
2022/05/19 05:12:21;;;;;;;83.50;53.65;;;23.20;58.60;;;;;;4921923;28;92018;-38
2022/05/19 05:14:47;;;;;;;84.05;53.65;;;23.10;58.50;;;;;;4919546;28;91542;-39
2022/05/19 05:17:14;;;;;;;82.93;53.85;;;23.20;58.50;;;;;;4922696;28;89964;-38
2022/05/19 05:19:41;;;;;;;84.43;53.88;;;23.20;58.40;;;;;;4921727;28;90365;-39
2022/05/19 05:22:07;;;;;;;86.22;53.70;;;23.20;58.30;;;;;;4910184;28;90100;-39
2022/05/19 05:24:33;;;;;;;83.45;53.63;;;23.30;58.40;;;;;;4910992;28;94971;-38
2022/05/19 05:26:58;;;;;;;88.60;55.60;;;23.30;58.50;;;;;;4933100;28;92625;-38
2022/05/19 05:29:24;;;;;;;86.75;55.42;;;23.10;65.10;;;;;;4913038;28;90100;-38
2022/05/19 05:31:50;;;;;;;87.97;55.10;;;23.10;65.70;;;;;;4916341;28;91343;-39
2022/05/19 05:34:16;;;;;;;90.90;55.38;;;23.10;63.10;;;;;;4908038;28;91197;-42
2022/05/19 05:36:42;;;;;;;89.22;56.00;;;23.10;66.00;;;;;;4910801;28;94238;-39
2022/05/19 05:39:07;;;;;;;88.93;56.03;;;23.00;66.50;;;;;;4908135;28;90479;-38
2022/05/19 05:41:33;;;;;;;93.22;55.78;;;23.00;65.50;;;;;;4921058;28;90436;-39
2022/05/19 05:43:58;;;;;;;88.80;55.72;;;23.10;63.50;;;;;;4926823;28;89939;-41
2022/05/19 05:46:24;;;;;;;89.20;55.53;;;23.30;64.60;;;;;;4925880;28;90905;-41
2022/05/19 05:48:51;;;;;;;88.95;55.40;;;23.30;64.20;;;;;;4922123;28;89850;-42
2022/05/19 05:51:17;;;;;;;87.70;56.42;;;23.30;64.40;;;;;;4928115;28;90144;-42
2022/05/19 05:53:44;;;;;;;86.95;55.60;;;23.40;67.30;;;;;;4920439;28;89287;-41
2022/05/19 05:56:13;;;;;;;88.47;55.47;;;23.40;65.40;;;;;;4913816;28;91238;-41
2022/05/19 05:58:39;;;;;;;86.97;55.92;;;23.50;64.70;;;;;;4909820;28;92691;-42
2022/05/19 06:01:08;;;;;;;87.78;55.63;;;23.50;66.50;;;;;;4917161;28;90898;-40
2022/05/19 06:03:33;;;;;;;87.75;55.78;;;23.50;66.10;;;;;;4920522;28;89877;-39
2022/05/19 06:06:00;;;;;;;88.90;56.00;;;23.50;65.40;;;;;;4925374;28;90435;-39
2022/05/19 06:08:26;;;;;;;89.60;56.45;;;23.60;65.80;;;;;;4917684;28;90788;-41
2022/05/19 06:10:52;;;;;;;89.60;56.28;;;23.60;66.60;;;;;;4918668;28;90022;-38
2022/05/19 06:13:17;;;;;;;86.28;55.85;;;23.60;64.90;;;;;;4929320;28;89939;-39
2022/05/19 06:15:44;;;;;;;92.50;56.05;;;23.70;65.00;;;;;;4923534;28;90822;-42
2022/05/19 06:18:10;;;;;;;91.82;57.15;;;23.80;64.80;;;;;;4932848;28;89658;-41
2022/05/19 06:20:36;;;;;;;92.75;56.63;;;23.90;66.30;;;;;;4934069;28;90320;-42
2022/05/19 06:23:03;;;;;;;92.10;57.03;;;23.80;67.80;;;;;;4926456;28;91769;-41
2022/05/19 06:25:29;;;;;;;90.03;56.45;;;23.70;68.30;;;;;;4917787;28;92561;-40
2022/05/19 06:27:56;;;;;;;94.00;57.60;;;23.80;66.40;;;;;;4929457;28;92620;-39
2022/05/19 06:30:22;;;;;;;89.78;56.20;;;23.70;70.00;;;;;;4916596;28;91634;-38
2022/05/19 06:32:49;;;;;;;88.82;56.20;;;23.80;67.90;;;;;;4928931;28;90219;-37
2022/05/19 06:35:18;;;;;;;90.63;57.50;;;23.90;66.10;;;;;;4915626;28;90118;-38
2022/05/19 06:37:44;;;;;;;92.43;57.00;;;24.00;67.40;;;;;;4930136;28;91370;-38
2022/05/19 06:40:13;;;;;;;97.07;57.35;;;24.10;66.90;;;;;;4924978;28;90372;-42
2022/05/19 06:42:39;;;;;;;93.03;57.00;;;24.10;67.00;;;;;;4923544;28;89475;-41
2022/05/19 06:45:06;;;;;;;89.57;56.78;;;24.20;66.20;;;;;;4926430;28;90603;-41
2022/05/19 06:47:32;;;;;;;94.55;57.28;;;24.20;66.50;;;;;;4918969;28;91519;-38
2022/05/19 06:49:58;;;;;;;94.70;57.28;;;24.30;65.50;;;;;;4928176;28;90390;-41
2022/05/19 06:52:28;;;;;;;91.82;58.05;;;24.40;65.30;;;;;;4922091;28;90066;-38
2022/05/19 06:54:57;;;;;;;97.10;57.97;;;24.40;65.90;;;;;;4926284;28;89901;-39
2022/05/19 06:57:25;;;;;;;94.70;57.35;;;24.40;65.80;;;;;;4918243;28;90341;-39
2022/05/19 06:59:52;;;;;;;93.55;56.15;;;24.40;66.50;;;;;;4914439;28;91468;-38
2022/05/19 07:02:20;;;;;;;95.03;57.13;;;24.40;64.10;;;;;;4924610;28;90037;-39
2022/05/19 07:04:46;;;;;;;95.95;57.63;;;24.50;63.60;;;;;;4918091;28;94677;-39
2022/05/19 07:07:12;;;;;;;96.38;57.97;;;24.60;65.10;;;;;;4927608;28;89878;-39
2022/05/19 07:09:38;;;;;;;95.30;56.72;;;24.60;64.90;;;;;;4932848;28;90541;-39
2022/05/19 07:12:05;;;;;;;92.72;57.38;;;24.60;63.80;;;;;;4918801;28;90937;-39
2022/05/19 07:14:32;;;;;;;92.57;57.58;;;24.70;63.50;;;;;;4923334;28;92364;-40
2022/05/19 07:16:57;;;;;;;94.85;57.33;;;24.70;64.10;;;;;;4923396;28;90916;-39
2022/05/19 07:22:15;;;;;;;91.97;57.35;;;24.60;66.40;;;;;;4927543;28;90119;-40
2022/05/19 07:24:40;;;;;;;94.88;57.10;;;24.60;65.50;;;;;;4921674;28;90123;-41
2022/05/19 07:27:06;;;;;;;93.03;56.88;;;24.70;64.60;;;;;;4922184;28;91329;-40
2022/05/19 07:29:32;;;;;;;93.18;57.03;;;24.70;63.50;;;;;;4920285;28;91114;-37
2022/05/19 07:32:00;;;;;;;92.20;56.92;;;24.80;63.10;;;;;;4918735;28;89928;-40
2022/05/19 07:34:29;;;;;;;91.63;56.88;;;24.80;63.00;;;;;;4914885;28;91145;-43
2022/05/19 07:36:55;;;;;;;98.53;57.25;;;24.90;62.90;;;;;;4930062;28;90555;-42
2022/05/19 07:39:22;;;;;;;94.30;57.50;;;24.90;62.90;;;;;;4921751;28;91561;-41
2022/05/19 07:41:48;;;;;;;96.82;57.63;;;24.90;65.20;;;;;;4925046;28;95791;-39
2022/05/19 07:44:14;;;;;;;97.20;57.47;;;24.90;64.30;;;;;;4923269;28;90154;-39
2022/05/19 07:46:40;;;;;;;94.78;57.25;;;25.00;63.20;;;;;;4921016;28;92765;-40
2022/05/19 07:49:07;;;;;;;97.30;58.53;;;25.00;63.10;;;;;;4933756;28;89943;-39
2022/05/19 07:51:36;;;;;;;93.95;58.35;;;25.10;63.90;;;;;;4923846;28;96147;-39
2022/05/19 07:54:07;;;;;;;96.55;57.88;;;25.10;63.60;;;;;;4916625;28;90064;-38
2022/05/19 07:56:33;;;;;;;90.47;57.67;;;25.10;65.60;;;;;;4922569;28;89403;-38
2022/05/19 07:59:00;;;;;;;92.90;57.72;;;25.10;63.40;;;;;;4930998;28;89879;-38
2022/05/19 08:01:26;;;;;;;95.47;57.72;;;25.20;63.50;;;;;;4917544;28;90128;-39
2022/05/19 08:03:52;;;;;;;91.28;58.03;;;25.20;62.70;;;;;;4924432;28;92785;-38
2022/05/19 08:06:18;;;;;;;94.03;57.70;;;25.30;63.00;;;;;;4923489;28;90060;-39
2022/05/19 08:08:44;;;;;;;94.40;57.95;;;25.30;62.20;;;;;;4924508;28;90137;-39
2022/05/19 08:11:10;;;;;;;91.38;57.83;;;25.40;62.30;;;;;;4928525;28;91153;-39
2022/05/19 08:16:22;;;;;;;90.43;57.80;;;25.50;62.00;;;;;;4921784;28;89652;-40
2022/05/19 08:18:48;;;;;;;94.15;58.60;;;25.70;61.30;;;;;;4928335;28;89499;-39
2022/05/19 08:21:15;;;;;;;94.72;58.20;;;25.70;62.40;;;;;;4918427;28;89646;-39
2022/05/19 08:23:44;;;;;;;92.28;58.65;;;25.80;61.90;;;;;;4923921;28;90465;-39
2022/05/19 08:26:11;;;;;;;94.55;58.63;;;25.80;63.60;;;;;;4926696;28;89918;-42
2022/05/19 08:28:39;;;;;;;92.43;58.28;;;25.80;62.00;;;;;;4931368;28;90821;-38
2022/05/19 08:31:11;;;;;;;94.20;59.35;;;25.80;63.40;;;;;;4914232;28;90355;-39
2022/05/19 08:33:38;;;;;;;91.68;58.55;;;25.80;63.00;;;;;;4918247;28;90834;-39
2022/05/19 08:36:05;;;;;;;93.18;58.75;;;25.70;63.40;;;;;;4928246;28;90145;-40
2022/05/19 08:38:31;;;;;;;93.97;58.33;;;25.80;61.50;;;;;;4920977;28;89899;-42
2022/05/19 08:41:22;;;;;;;92.70;58.35;;;25.80;63.40;;;;;;4926283;28;90638;-38
2022/05/19 08:44:02;;;;;;;92.60;59.00;;;25.90;60.50;;;;;;4921144;28;90229;-39
2022/05/19 08:46:33;;;;;;;92.78;58.80;;;25.90;61.60;;;;;;4922059;28;89875;-40
2022/05/19 08:49:08;;;;;;;92.18;58.78;;;25.80;60.70;;;;;;4927785;28;90158;-39
2022/05/19 08:51:48;;;;;;;91.97;58.83;;;26.00;61.50;;;;;;4924531;28;92451;-39
2022/05/19 08:54:18;;;;;;;92.32;59.30;;;26.30;60.00;;;;;;4915647;28;94765;-38
2022/05/19 08:56:55;;;;;;;95.45;59.45;;;26.50;59.70;;;;;;4922623;28;90902;-37
2022/05/19 08:59:40;;;;;;;92.57;59.47;;;26.50;59.00;;;;;;4927956;28;89901;-38
2022/05/19 09:02:09;;;;;;;91.75;58.72;;;26.30;60.30;;;;;;4917441;28;90328;-39
2022/05/19 09:04:44;;;;;;;93.53;58.88;;;26.30;60.50;;;;;;4932829;28;90534;-38
2022/05/19 09:07:59;;;;;;;91.45;58.58;;;26.10;59.90;;;;;;4927580;28;90829;-39
2022/05/19 09:10:52;;;;;;;92.47;58.42;;;26.00;60.70;;;;;;4917166;28;91170;-38
2022/05/19 09:13:51;;;;;;;97.95;59.80;;;25.80;62.00;;;;;;4924502;28;89648;-39
2022/05/19 09:16:27;;;;;;;95.95;61.38;;;25.60;64.40;;;;;;4926745;28;94472;-39
2022/05/19 09:19:09;;;;;;;95.10;59.38;;;25.30;68.30;;;;;;4924946;28;90528;-39
2022/05/19 09:21:36;;;;;;;106.93;60.75;;;25.10;68.30;;;;;;4924321;28;91784;-39
2022/05/19 09:24:03;;;;;;;104.22;61.10;;;25.00;68.40;;;;;;4941045;28;90127;-34
2022/05/19 09:26:54;;;;;;;106.00;61.25;;;24.60;70.20;;;;;;4944734;28;81126;-34
2022/05/19 09:29:28;;;;;;;106.95;62.17;;;24.50;71.50;;;;;;4932694;28;89589;-37
2022/05/19 09:32:03;;;;;;;106.18;63.05;;;24.40;72.60;;;;;;4914493;28;90945;-37
2022/05/19 09:34:30;;;;;;;108.30;62.03;;;24.20;75.30;;;;;;4917152;28;91304;-40
2022/05/19 09:37:36;;;;;;;106.97;62.65;;;24.00;75.90;;;;;;4923941;28;91861;-37
2022/05/19 09:40:11;;;;;;;104.53;61.47;;;23.80;77.00;;;;;;4924202;28;90903;-38
2022/05/19 09:42:59;;;;;;;105.50;61.85;;;23.70;77.10;;;;;;4920904;28;91463;-37
2022/05/19 09:45:27;;;;;;;105.65;60.35;;;23.60;76.30;;;;;;4924877;28;90968;-38
2022/05/19 09:47:58;;;;;;;101.88;59.22;;;23.60;74.20;;;;;;4934030;28;90127;-39
2022/05/19 09:50:27;;;;;;;101.82;59.60;;;23.50;72.60;;;;;;4940260;28;89972;-39
2022/05/19 09:53:01;;;;;;;99.53;58.67;;;22.80;75.30;;;;;;4919263;28;90729;-41
2022/05/19 09:55:28;;;;;;;102.07;58.42;;;22.90;73.80;;;;;;4918045;28;90076;-38
2022/05/19 09:58:02;;;;;;;102.85;58.25;;;23.10;72.80;;;;;;4941170;28;79181;-35
2022/05/19 10:00:46;;;;;;;98.38;58.20;;;22.90;73.50;;;;;;4934160;28;80661;-37
2022/05/19 10:03:20;;;;;;;98.13;58.40;;;23.20;72.50;;;;;;4940473;28;79700;-38
2022/05/19 10:05:50;;;;;;;104.57;58.15;;;23.50;71.30;;;;;;4948787;28;77999;-37
2022/05/19 10:08:24;;;;;;;97.38;58.00;;;23.50;71.20;;;;;;4940585;28;77226;-36
2022/05/19 10:11:05;;;;;;;97.47;57.78;;;23.40;71.30;;;;;;4934059;28;74949;-36
2022/05/19 10:13:48;;;;;;;97.35;57.25;;;23.60;69.80;;;;;;4932037;28;77318;-39
2022/05/19 10:16:13;;;;;;;99.00;57.78;;;23.70;68.70;;;;;;4945895;28;81080;-36
2022/05/19 10:19:07;;;;;;;101.60;57.22;;;23.90;68.00;;;;;;4944806;28;75433;-36
2022/05/19 10:22:00;;;;;;;95.88;56.53;;;24.00;67.10;;;;;;4952593;28;78859;-36
2022/05/19 10:24:38;;;;;;;99.78;56.72;;;24.00;66.40;;;;;;4940286;28;80204;-36
2022/05/19 10:33:48;;;;;;;100.53;56.70;;;24.30;64.90;;;;;;4944104;28;81230;-36
2022/05/19 10:36:33;;;;;;;95.63;56.90;;;24.50;64.30;;;;;;4952572;28;75799;-38
2022/05/19 10:39:17;;;;;;;96.22;56.60;;;24.60;63.30;;;;;;4937346;28;78185;-38
2022/05/19 10:42:01;;;;;;;98.20;56.95;;;24.70;62.50;;;;;;4950492;28;79170;-37
2022/05/19 10:44:27;;;;;;;98.20;56.80;;;24.70;62.50;;;;;;4948083;28;79201;-38
2022/05/19 10:47:11;;;;;;;96.90;56.58;;;24.70;62.70;;;;;;4947224;28;74734;-38
2022/05/19 10:49:43;;;;;;;95.05;56.58;;;24.60;62.90;;;;;;4941889;28;78373;-37
2022/05/19 10:52:53;;;;;;;97.53;56.72;;;24.60;62.50;;;;;;4952352;28;75889;-37
2022/05/19 10:55:25;;;;;;;93.93;56.05;;;24.60;62.30;;;;;;4931657;28;78117;-37
2022/05/19 10:57:56;;;;;;;98.35;56.70;;;24.60;62.30;;;;;;4946570;28;78504;-37
2022/05/19 11:00:42;;;;;;;96.63;57.20;;;24.70;61.80;;;;;;4942739;28;76651;-37
2022/05/19 11:03:41;;;;;;;97.93;57.10;;;24.90;61.20;;;;;;4940666;28;76549;-38
2022/05/19 11:06:39;;;;;;;97.32;57.17;;;25.20;60.30;;;;;;4950473;28;74575;-37
2022/05/19 11:09:17;;;;;;;97.18;57.47;;;25.50;59.40;;;;;;4948314;28;78732;-37
2022/05/19 11:11:49;;;;;;;96.30;57.22;;;25.70;58.90;;;;;;4954553;28;79564;-36
2022/05/19 11:14:35;;;;;;;98.85;57.08;;;25.80;58.50;;;;;;4951511;28;81321;-41
2022/05/19 11:17:38;;;;;;;98.38;57.58;;;26.00;57.80;;;;;;4956789;28;79124;-37
2022/05/19 11:20:16;;;;;;;101.05;57.50;;;26.10;57.50;;;;;;4946570;28;79453;-39
2022/05/19 11:22:45;;;;;;;100.57;57.78;;;26.20;57.20;;;;;;4947621;28;76230;-37
2022/05/19 11:28:36;;;;;;;99.15;57.53;;;26.40;56.60;;;;;;4937351;28;74228;-38
2022/05/19 11:31:16;;;;;;;97.50;57.80;;;26.40;56.10;;;;;;4935244;28;78974;-39
2022/05/19 11:33:46;;;;;;;99.47;58.07;;;26.50;56.10;;;;;;4934855;28;73197;-38
2022/05/19 11:36:36;;;;;;;98.38;58.03;;;26.50;56.50;;;;;;4943333;28;77741;-37
2022/05/19 11:39:28;;;;;;;101.07;57.72;;;26.60;56.90;;;;;;4934785;28;77661;-37
2022/05/19 11:42:00;;;;;;;98.78;57.65;;;26.50;57.20;;;;;;4940533;28;76409;-37
2022/05/19 11:44:34;;;;;;;100.70;57.03;;;26.40;58.00;;;;;;4932180;28;79366;-37
2022/05/19 11:55:12;;;;;;;98.97;57.30;;;26.30;57.70;;;;;;4946150;28;78061;-37
2022/05/19 11:55:49;;;;;;;98.45;57.17;;;26.10;57.80;;;;;;4944902;28;76209;-38
2022/05/19 11:58:22;;;;;;;98.43;57.42;;;26.20;57.70;;;;;;4947638;28;76468;-40
2022/05/19 12:01:00;;;;;;;100.25;57.08;;;26.20;57.60;;;;;;4936693;28;74468;-37
2022/05/19 12:03:58;;;;;;;99.32;57.63;;;26.20;57.50;;;;;;4947455;28;79398;-37
2022/05/19 12:06:28;;;;;;;98.07;57.20;;;26.30;57.20;;;;;;4945781;28;78087;-37
2022/05/19 12:08:56;;;;;;;97.13;57.30;;;26.50;56.50;;;;;;4942418;28;77820;-38
2022/05/19 12:11:44;;;;;;;98.53;57.00;;;26.50;56.30;;;;;;4943018;28;77256;-38
2022/05/19 12:14:24;;;;;;;97.65;56.63;;;26.50;56.50;;;;;;4947873;28;76654;-40
2022/05/19 12:16:52;;;;;;;95.32;56.65;;;26.40;56.50;;;;;;4945271;28;77645;-37
2022/05/19 12:19:30;;;;;;;96.15;56.92;;;26.30;56.80;;;;;;4944293;28;77364;-37
2022/05/19 12:21:56;;;;;;;97.80;57.33;;;26.30;57.00;;;;;;4938821;28;76521;-37
2022/05/19 12:24:59;;;;;;;103.97;58.38;;;26.20;57.30;;;;;;4944708;28;75167;-37
2022/05/19 12:27:49;;;;;;;100.70;58.30;;;26.30;57.60;;;;;;4956784;28;78376;-36
2022/05/19 12:33:27;;;;;;;106.63;59.00;;;26.40;58.40;;;;;;4940739;28;79806;-36
2022/05/19 12:36:09;;;;;;;106.60;59.45;;;26.50;57.80;;;;;;4938900;28;74968;-39
2022/05/19 12:38:40;;;;;;;103.25;58.55;;;26.60;57.20;;;;;;4942930;28;74147;-37
2022/05/19 12:41:09;;;;;;;102.63;58.70;;;26.80;57.00;;;;;;4932194;28;84119;-39
2022/05/19 12:43:41;;;;;;;106.25;59.50;;;26.90;56.70;;;;;;4940216;28;75657;-36
2022/05/19 12:46:33;;;;;;;102.03;58.90;;;26.90;56.50;;;;;;4936229;28;73286;-36
2022/05/19 12:49:20;;;;;;;105.88;59.10;;;26.80;56.70;;;;;;4945901;28;78122;-37
2022/05/19 12:51:51;;;;;;;105.05;58.75;;;26.80;57.00;;;;;;4947429;28;80139;-37
2022/05/19 12:54:19;;;;;;;101.53;58.50;;;26.80;56.50;;;;;;4950061;28;77208;-37
2022/05/19 12:56:46;;;;;;;104.68;59.55;;;26.80;56.70;;;;;;4942592;28;81864;-37
2022/05/19 12:59:35;;;;;;;105.88;59.35;;;26.80;57.60;;;;;;4946527;28;73624;-37
2022/05/19 13:02:05;;;;;;;102.60;58.65;;;27.00;56.30;;;;;;4937321;28;77381;-39
2022/05/19 13:04:42;;;;;;;101.70;58.78;;;27.10;55.90;;;;;;4938581;28;75254;-36
2022/05/19 13:07:28;;;;;;;103.97;58.88;;;27.30;55.60;;;;;;4934468;28;79613;-39
2022/05/19 13:10:13;;;;;;;101.55;58.55;;;27.30;55.40;;;;;;4930390;28;78588;-40
2022/05/19 13:13:05;;;;;;;105.45;58.17;;;27.30;55.30;;;;;;4944220;28;77949;-38